createdAt,value
2023-04-16T00:01:05.977Z,17.65
2023-04-16T00:03:32.686Z,18.63
2023-04-16T00:05:59.330Z,18.90
2023-04-16T00:08:25.893Z,21.17
2023-04-16T00:10:55.409Z,21.30
2023-04-16T00:13:22.899Z,22.27
2023-04-16T00:15:49.296Z,19.83
2023-04-16T00:18:15.722Z,20.33
2023-04-16T00:20:42.148Z,20.00
2023-04-16T00:23:08.519Z,20.35
2023-04-16T00:25:34.891Z,20.48
2023-04-16T00:28:01.260Z,18.83
2023-04-16T00:30:27.706Z,19.02
2023-04-16T00:32:54.080Z,19.43
2023-04-16T00:35:20.543Z,22.95
2023-04-16T00:37:46.913Z,20.27
2023-04-16T00:40:13.303Z,25.77
2023-04-16T00:42:39.655Z,21.73
2023-04-16T00:45:06.522Z,22.40
2023-04-16T00:47:33.726Z,22.15
2023-04-16T00:50:00.158Z,25.85
2023-04-16T00:52:27.480Z,31.23
2023-04-16T00:54:54.028Z,26.63
2023-04-16T00:57:23.760Z,22.30
2023-04-16T00:59:50.536Z,26.10
2023-04-16T01:02:17.358Z,29.73
2023-04-16T01:04:43.868Z,27.80
2023-04-16T01:07:10.217Z,34.58
2023-04-16T01:09:36.572Z,30.93
2023-04-16T01:12:04.121Z,29.30
2023-04-16T01:14:31.762Z,36.83
2023-04-16T01:16:58.100Z,28.75
2023-04-16T01:19:24.460Z,34.20
2023-04-16T01:21:51.013Z,35.57
2023-04-16T01:24:17.415Z,33.75
2023-04-16T01:26:44.826Z,56.97
2023-04-16T01:29:11.402Z,23.55
2023-04-16T01:31:37.885Z,37.70
2023-04-16T01:34:04.375Z,38.73
2023-04-16T01:36:30.759Z,32.90
2023-04-16T01:38:57.182Z,33.17
2023-04-16T01:41:23.547Z,23.23
2023-04-16T01:43:49.920Z,23.38
2023-04-16T01:46:31.504Z,24.33
2023-04-16T01:48:58.451Z,27.20
2023-04-16T01:51:25.043Z,23.50
2023-04-16T01:53:51.447Z,42.35
2023-04-16T01:56:17.860Z,33.55
2023-04-16T01:58:46.055Z,37.40
2023-04-16T02:01:13.399Z,36.55
2023-04-16T02:03:40.713Z,36.28
2023-04-16T02:06:07.405Z,32.30
2023-04-16T02:08:33.813Z,29.73
2023-04-16T02:11:00.943Z,31.07
2023-04-16T02:13:27.438Z,27.30
2023-04-16T02:15:53.870Z,40.35
2023-04-16T02:18:20.241Z,26.00
2023-04-16T02:20:47.168Z,46.03
2023-04-16T02:23:15.051Z,48.80
2023-04-16T02:25:42.271Z,38.92
2023-04-16T02:28:09.388Z,39.78
2023-04-16T02:30:36.854Z,38.40
2023-04-16T02:33:05.592Z,20.60
2023-04-16T02:35:35.103Z,28.17
2023-04-16T02:38:02.844Z,28.63
2023-04-16T02:40:29.344Z,24.58
2023-04-16T02:42:56.036Z,30.35
2023-04-16T02:45:23.283Z,25.40
2023-04-16T02:47:50.114Z,23.03
2023-04-16T02:50:17.385Z,22.30
2023-04-16T02:52:43.769Z,22.85
2023-04-16T02:55:10.898Z,20.30
2023-04-16T02:57:37.271Z,20.05
2023-04-16T03:00:06.725Z,20.70
2023-04-16T03:02:33.166Z,20.63
2023-04-16T03:04:59.586Z,20.75
2023-04-16T03:07:26.189Z,19.95
2023-04-16T03:09:52.639Z,22.33
2023-04-16T03:12:19.029Z,21.33
2023-04-16T03:14:45.375Z,20.67
2023-04-16T03:17:12.097Z,18.17
2023-04-16T03:19:38.499Z,22.50
2023-04-16T03:22:04.909Z,24.77
2023-04-16T03:24:32.190Z,20.47
2023-04-16T03:26:58.890Z,22.20
2023-04-16T03:29:26.695Z,21.45
2023-04-16T03:31:53.207Z,21.02
2023-04-16T03:34:19.580Z,21.98
2023-04-16T08:11:15.691Z,27.65
2023-04-16T08:13:43.125Z,30.98
2023-04-16T08:16:09.425Z,28.50
2023-04-16T08:18:35.736Z,26.20
2023-04-16T08:21:02.113Z,23.10
2023-04-16T08:23:28.454Z,21.92
2023-04-16T08:25:54.670Z,22.38
2023-04-16T08:28:20.931Z,22.33
2023-04-16T08:30:47.208Z,20.75
2023-04-16T08:33:14.188Z,18.63
2023-04-16T08:35:41.250Z,17.20
2023-04-16T08:38:07.713Z,20.15
2023-04-16T08:40:37.808Z,20.90
2023-04-16T08:43:05.696Z,21.73
2023-04-16T08:45:33.222Z,18.90
2023-04-16T08:47:59.542Z,19.58
2023-04-16T08:50:26.568Z,20.35
2023-04-16T08:52:54.007Z,20.27
2023-04-16T08:55:26.178Z,21.58
2023-04-16T08:57:57.519Z,22.00
2023-04-16T09:00:23.943Z,21.30
2023-04-16T09:02:51.682Z,19.77
2023-04-16T09:05:18.963Z,19.85
2023-04-16T09:07:46.186Z,17.50
2023-04-16T09:10:14.351Z,20.57
2023-04-16T09:12:42.229Z,16.90
2023-04-16T09:15:10.254Z,16.98
2023-04-16T09:17:36.599Z,22.25
2023-04-16T09:20:05.847Z,19.27
2023-04-16T09:22:32.142Z,16.90
2023-04-16T09:24:58.373Z,16.13
2023-04-16T09:27:26.154Z,17.00
2023-04-16T09:29:52.496Z,15.57
2023-04-16T09:34:55.942Z,15.35
2023-04-16T09:37:22.234Z,13.52
2023-04-16T09:39:58.357Z,11.87
2023-04-16T09:42:27.060Z,12.50
2023-04-16T09:44:53.834Z,13.60
2023-04-16T09:47:20.505Z,11.70
2023-04-16T09:49:47.169Z,11.38
2023-04-16T09:52:20.639Z,11.20
2023-04-16T09:54:46.920Z,11.02
2023-04-16T09:57:14.615Z,9.23
2023-04-16T09:59:40.850Z,8.73
2023-04-16T10:02:14.669Z,10.75
2023-04-16T10:04:50.400Z,9.63
2023-04-16T10:07:16.966Z,12.77
2023-04-16T10:09:43.466Z,12.52
2023-04-16T10:12:10.222Z,10.80
2023-04-16T10:14:36.513Z,12.13
2023-04-16T10:17:03.702Z,11.27
2023-04-16T10:20:03.765Z,11.90
2023-04-16T10:22:30.254Z,11.73
2023-04-16T10:24:56.754Z,9.02
2023-04-16T10:27:24.507Z,7.70
2023-04-16T10:29:51.098Z,8.30
2023-04-16T10:32:18.200Z,8.67
2023-04-16T10:34:44.566Z,12.10
2023-04-16T10:37:10.823Z,12.82
2023-04-16T10:39:37.430Z,12.85
2023-04-16T10:42:08.113Z,12.32
2023-04-16T10:44:34.419Z,13.17
2023-04-16T10:47:00.783Z,12.18
2023-04-16T10:49:28.113Z,12.25
2023-04-16T10:51:55.573Z,12.05
2023-04-16T10:54:26.422Z,10.68
2023-04-16T10:56:53.528Z,12.17
2023-04-16T10:59:23.071Z,10.65
2023-04-16T11:01:54.278Z,10.85
2023-04-16T11:04:20.806Z,9.90
2023-04-16T11:07:03.093Z,10.73
2023-04-16T11:09:51.019Z,10.37
2023-04-16T11:12:21.265Z,10.70
2023-04-16T11:14:52.925Z,10.77
2023-04-16T11:17:19.973Z,10.98
2023-04-16T11:19:46.746Z,10.73
2023-04-16T11:22:15.271Z,11.43
2023-04-16T11:24:41.651Z,11.38
2023-04-16T11:27:08.385Z,8.35
2023-04-16T11:29:34.701Z,9.10
2023-04-16T11:32:01.011Z,9.02
2023-04-16T11:34:27.287Z,8.60
2023-04-16T11:36:54.671Z,10.18
2023-04-16T11:39:22.651Z,10.02
2023-04-16T11:41:49.789Z,8.70
2023-04-16T11:44:19.304Z,10.25
2023-04-16T11:46:45.656Z,9.93
2023-04-16T11:49:12.330Z,10.15
2023-04-16T11:51:42.877Z,9.38
2023-04-16T11:54:17.958Z,9.07
2023-04-16T11:56:46.751Z,8.52
2023-04-16T11:59:31.061Z,8.77
2023-04-16T12:01:58.522Z,8.88
2023-04-16T12:04:26.145Z,11.30
2023-04-16T12:07:07.942Z,10.25
2023-04-16T12:09:40.125Z,9.18
2023-04-16T12:12:06.959Z,11.47
2023-04-16T12:14:33.302Z,11.90
2023-04-16T12:17:18.449Z,10.70
2023-04-16T12:19:48.469Z,11.20
2023-04-16T12:22:14.744Z,11.63
2023-04-16T12:24:41.099Z,12.00
2023-04-16T12:27:08.955Z,10.50
2023-04-16T12:29:35.497Z,12.93
2023-04-16T12:32:01.890Z,11.98
2023-04-16T12:34:48.510Z,14.20
2023-04-16T12:37:14.828Z,13.17
2023-04-16T12:39:41.431Z,14.82
2023-04-16T12:42:09.835Z,12.05
2023-04-16T12:44:36.234Z,12.65
2023-04-16T12:47:02.569Z,12.43
2023-04-16T12:49:28.815Z,13.60
2023-04-16T12:51:55.045Z,9.85
2023-04-16T12:54:21.289Z,11.90
2023-04-16T12:56:48.577Z,11.57
2023-04-16T12:59:14.861Z,11.95
2023-04-16T13:01:41.115Z,11.67
2023-04-16T13:04:07.746Z,11.93
2023-04-16T13:06:34.432Z,13.75
2023-04-16T13:09:00.718Z,12.40
2023-04-16T13:11:27.127Z,10.48
2023-04-16T13:13:53.406Z,11.07
2023-04-16T13:16:19.694Z,10.93
2023-04-16T13:18:46.123Z,11.20
2023-04-16T13:21:12.434Z,11.55
2023-04-16T13:23:39.878Z,10.43
2023-04-16T13:26:06.207Z,9.63
2023-04-16T13:28:32.506Z,10.68
2023-04-16T13:30:59.187Z,10.00
2023-04-16T13:33:25.888Z,9.30
2023-04-16T13:35:52.135Z,12.18
2023-04-16T13:38:18.469Z,9.70
2023-04-16T13:40:44.853Z,7.35
2023-04-16T13:43:11.449Z,9.65
2023-04-16T13:45:38.054Z,7.57
2023-04-16T13:48:04.452Z,8.32
2023-04-16T13:50:31.741Z,7.57
2023-04-16T13:52:58.027Z,8.68
2023-04-16T13:55:25.392Z,7.60
2023-04-16T13:57:53.185Z,6.72
2023-04-16T14:00:19.658Z,7.75
2023-04-16T14:02:46.205Z,7.03
2023-04-16T14:05:12.693Z,7.15
2023-04-16T14:07:38.988Z,6.85
2023-04-16T14:10:05.424Z,6.55
2023-04-16T14:12:32.400Z,6.57
2023-04-16T14:14:59.816Z,8.10
2023-04-16T14:17:26.228Z,6.85
2023-04-16T14:19:52.520Z,6.80
2023-04-16T14:22:18.746Z,6.90
2023-04-16T14:24:46.173Z,7.80
2023-04-16T14:27:12.394Z,6.60
2023-04-16T14:29:38.651Z,6.95
2023-04-16T14:32:05.278Z,7.05
2023-04-16T14:34:31.613Z,7.50
2023-04-16T14:36:57.904Z,7.88
2023-04-16T14:39:24.242Z,5.10
2023-04-16T14:41:50.710Z,5.22
2023-04-16T14:44:16.971Z,6.95
2023-04-16T14:46:43.732Z,7.38
2023-04-16T14:49:12.472Z,8.38
2023-04-16T14:51:38.911Z,5.40
2023-04-16T14:54:05.194Z,6.95
2023-04-16T14:56:45.576Z,6.88
2023-04-16T14:59:18.339Z,7.00
2023-04-16T15:01:58.823Z,9.85
2023-04-16T15:04:42.531Z,10.07
2023-04-16T15:07:10.057Z,10.80
2023-04-16T15:09:39.862Z,7.53
2023-04-16T15:12:06.432Z,6.65
2023-04-16T15:14:33.692Z,6.57
2023-04-16T15:17:15.094Z,7.77
2023-04-16T15:19:52.260Z,5.97
2023-04-16T15:22:20.760Z,5.60
2023-04-16T15:24:54.120Z,5.75
2023-04-16T15:27:20.780Z,5.75
2023-04-16T15:29:52.325Z,5.70
2023-04-16T15:32:18.810Z,6.93
2023-04-16T15:34:53.578Z,7.28
2023-04-16T15:37:20.065Z,7.63
2023-04-16T15:39:46.546Z,6.10
2023-04-16T15:42:13.484Z,6.63
2023-04-16T15:44:42.673Z,6.95
2023-04-16T15:47:21.570Z,6.82
2023-04-16T15:50:10.469Z,7.47
2023-04-16T15:52:44.500Z,7.85
2023-04-16T15:55:17.211Z,9.47
2023-04-16T15:57:44.586Z,11.48
2023-04-16T16:00:16.929Z,8.98
2023-04-16T16:02:44.614Z,6.55
2023-04-16T16:05:11.795Z,7.50
2023-04-16T16:07:38.197Z,7.83
2023-04-16T16:10:05.954Z,11.88
2023-04-16T16:12:32.896Z,10.13
2023-04-16T16:15:02.116Z,8.85
2023-04-16T16:17:28.886Z,9.98
2023-04-16T16:19:57.406Z,8.40
2023-04-16T16:22:23.832Z,11.43
2023-04-16T16:24:53.342Z,9.20
2023-04-16T16:27:20.905Z,10.93
2023-04-16T16:29:47.194Z,9.98
2023-04-16T16:32:13.743Z,9.83
2023-04-16T16:34:40.006Z,9.45
2023-04-16T16:37:06.345Z,8.73
2023-04-16T16:39:32.751Z,9.07
2023-04-16T16:41:58.986Z,8.43
2023-04-16T16:44:25.304Z,7.33
2023-04-16T16:46:51.773Z,7.82
2023-04-16T16:49:18.306Z,7.93
2023-04-16T16:51:48.117Z,8.68
2023-04-16T16:54:14.617Z,8.10
2023-04-16T16:56:40.896Z,7.33
2023-04-16T16:59:08.892Z,7.03
2023-04-16T17:01:35.521Z,7.32
2023-04-16T17:04:01.974Z,6.65
2023-04-16T17:06:28.664Z,6.90
2023-04-16T17:08:56.016Z,7.23
2023-04-16T17:11:22.272Z,6.15
2023-04-16T17:13:48.537Z,7.00
2023-04-16T17:16:16.628Z,6.30
2023-04-16T17:18:42.914Z,6.90
2023-04-16T17:21:09.150Z,6.73
2023-04-16T17:23:35.402Z,7.25
2023-04-16T17:26:01.727Z,8.13
2023-04-16T17:28:27.986Z,7.53
2023-04-16T17:30:56.103Z,8.98
2023-04-16T17:33:22.442Z,9.97
2023-04-16T17:35:48.758Z,9.50
2023-04-16T17:38:15.024Z,8.13
2023-04-16T17:40:41.469Z,7.90
2023-04-16T17:43:07.701Z,8.18
2023-04-16T17:45:34.007Z,11.30
2023-04-16T17:48:01.009Z,11.23
2023-04-16T17:50:27.459Z,11.65
2023-04-16T17:52:54.765Z,10.65
2023-04-16T17:55:21.055Z,12.15
2023-04-16T17:57:47.309Z,15.03
2023-04-16T18:00:14.357Z,12.98
2023-04-16T18:02:41.448Z,11.27
2023-04-16T18:05:08.247Z,13.05
2023-04-16T18:07:35.433Z,14.15
2023-04-16T18:10:01.720Z,16.80
2023-04-16T18:12:27.998Z,16.63
2023-04-16T18:14:54.230Z,17.38
2023-04-16T18:17:22.660Z,13.07
